Hauptseite
METAR-TAF:

METAR-TAF

Flughäfen :

Militärflugplatz Leeuwarden

Leeuwarden, Niederlande

Breite: 53-13N, Länge: 005-46E, Höhe: 1 m

Beobachtung

Neuester Wetterbericht von vor 27 Minuten, um 06:25 UTC
Wind 5 kt aus Südwest
Temperatur 4°C
Luftfeuchtigkeit 93%
Luftdruck 1046 hPa
Sichtweite 10 km oder mehr
keine Wolken unter 1500 m und keine Kumulonimbus oder Gewitterwolken

METAR: EHLW 200625Z AUTO 22004KT 9999 SCT096 OVC100 04/03 Q1046 BLU 23005KT CAVOK RMK R23

Zeit: 07:52 (06:52 UTC)

Prognose

Neuester Wetterbericht von vor 1 Stunde und 7 Minuten, um 05:45 UTC
Gültige Prognose vom 20 um 06 UTC bis 20 um 18 UTC
Wind 7 kt aus West/Südwest
Sichtweite 10 km oder mehr
keine Wolken unter 1500 m und keine Kumulonimbus oder Gewitterwolken

TAF: EHLW 200545Z 2006/2018 24007KT CAVOK

Wetterbeobachtungen und Prognosen von mehr als 4000 Flughäfen (METAR und TAF Bericht).

Die verfügbaren Stationen werden durch gelbe und rote Markierungen auf der Karte dargestellt.

Führen Sie die Maus auf sie, um den Namen der Station zu sehen.

Darauf klicken, um die Beobachtung von Wetterbeobachtungen und Prognosen zu sehen.

Um die Karte zu ändern : klicken Sie auf den grünen Tasten mit einem schwarzen Kreuz Zum Vergrößern, auf den grünen Button mit einem Gedankenstrich zu verkleinern, oder auf die grünen Pfeile für benachbarte Karten.


METAR-TAF: